Time,TemperatureF,DewpointF,PressureIn,WindDirection,WindDirectionDegrees,WindSpeedMPH,WindSpeedGustMPH,Humidity,HourlyPrecipIn,Conditions,Clouds,dailyrainin,SoftwareType,DateUTC
2013-02-11 00:06:00,36.0,18.1,30.00,East,90,1.7,1.7,48,0.00,,,0.00,,2013-02-10 23:06:00,
2013-02-11 00:16:00,35.8,18.0,30.00,East,90,0.8,0.8,48,0.00,,,0.00,,2013-02-10 23:16:00,
2013-02-11 00:26:00,35.8,18.0,30.00,South,180,1.7,3.5,48,0.00,,,0.00,,2013-02-10 23:26:00,
2013-02-11 00:36:00,35.4,17.1,30.00,NE,45,0.8,2.6,47,0.00,,,0.00,,2013-02-10 23:36:00,
2013-02-11 00:41:00,35.4,17.1,30.00,NE,45,0.8,2.6,47,0.00,,,0.00,,2013-02-10 23:41:00,
2013-02-11 00:47:00,35.2,17.4,30.00,East,90,0.8,3.5,48,0.00,,,0.00,,2013-02-10 23:47:00,
2013-02-11 00:56:00,35.2,17.4,30.00,East,90,0.4,3.5,48,0.00,,,0.00,,2013-02-10 23:56:00,
2013-02-11 01:06:00,35.2,17.4,29.97,East,90,0.4,0.0,48,0.00,,,0.00,,2013-02-11 00:06:00,
2013-02-11 01:16:00,35.4,17.1,29.97,East,90,1.3,2.2,47,0.00,,,0.00,,2013-02-11 00:16:00,
2013-02-11 01:26:00,35.4,17.1,29.97,East,90,1.3,3.1,47,0.00,,,0.00,,2013-02-11 00:26:00,
2013-02-11 01:36:00,35.6,17.2,29.97,ESE,112,1.7,3.1,47,0.00,,,0.00,,2013-02-11 00:36:00,
2013-02-11 01:41:00,35.6,17.2,29.97,ESE,112,1.7,3.1,47,0.00,,,0.00,,2013-02-11 00:41:00,
2013-02-11 01:47:00,35.8,16.9,29.97,East,90,0.4,0.8,46,0.00,,,0.00,,2013-02-11 00:47:00,
2013-02-11 01:56:00,35.8,16.9,29.97,East,90,0.4,1.7,46,0.00,,,0.00,,2013-02-11 00:56:00,
2013-02-11 02:06:00,36.1,17.8,29.97,West,270,0.0,0.0,47,19.36,,,0.00,,2013-02-11 01:06:00,
2013-02-11 02:16:00,36.5,17.1,29.94,SE,135,0.4,1.7,45,0.00,,,0.00,,2013-02-11 01:16:00,
2013-02-11 02:26:00,37.0,16.5,29.94,East,90,1.7,2.2,43,0.00,,,0.00,,2013-02-11 01:26:00,
2013-02-11 02:36:00,37.4,16.3,29.94,East,90,1.7,2.6,42,0.00,,,0.00,,2013-02-11 01:36:00,
2013-02-11 02:41:00,37.4,16.3,29.94,East,90,1.7,2.6,42,0.00,,,0.00,,2013-02-11 01:41:00,
2013-02-11 02:47:00,38.5,16.2,29.94,East,90,3.5,4.0,40,0.00,,,0.00,,2013-02-11 01:47:00,
2013-02-11 02:56:00,39.4,14.5,29.94,South,180,3.1,5.3,36,0.00,,,0.00,,2013-02-11 01:56:00,
2013-02-11 03:06:00,39.9,12.9,29.91,South,180,4.4,4.4,33,0.00,,,0.00,,2013-02-11 02:06:00,
2013-02-11 03:16:00,40.1,12.4,29.94,South,180,5.8,5.8,32,0.00,,,0.00,,2013-02-11 02:16:00,
2013-02-11 03:26:00,40.1,12.4,29.91,South,180,5.3,8.5,32,0.00,,,0.00,,2013-02-11 02:26:00,
2013-02-11 03:36:00,39.9,12.4,29.91,South,180,5.3,8.0,32,0.00,,,0.00,,2013-02-11 02:36:00,
2013-02-11 03:41:00,39.9,12.4,29.91,South,180,5.3,8.0,32,0.00,,,0.00,,2013-02-11 02:41:00,
2013-02-11 03:47:00,39.9,12.4,29.91,South,180,3.5,4.4,32,0.00,,,0.00,,2013-02-11 02:47:00,
2013-02-11 03:56:00,40.1,12.4,29.91,South,180,4.0,6.2,32,0.00,,,0.00,,2013-02-11 02:56:00,
2013-02-11 04:06:00,40.3,11.8,29.91,South,180,4.9,6.7,31,0.00,,,0.00,,2013-02-11 03:06:00,
2013-02-11 04:16:00,40.1,12.4,29.91,East,90,4.4,7.6,32,0.00,,,0.00,,2013-02-11 03:16:00,
2013-02-11 04:26:00,39.9,12.4,29.91,East,90,5.8,5.8,32,0.00,,,0.00,,2013-02-11 03:26:00,
2013-02-11 04:36:00,39.7,12.9,29.91,East,90,4.0,4.0,33,0.00,,,0.00,,2013-02-11 03:36:00,
2013-02-11 04:41:00,39.7,12.9,29.91,East,90,4.0,4.0,33,0.00,,,0.00,,2013-02-11 03:41:00,
2013-02-11 04:47:00,39.6,13.3,29.91,South,180,4.4,4.4,34,0.00,,,0.00,,2013-02-11 03:47:00,
2013-02-11 04:56:00,39.6,13.3,29.91,South,180,4.0,5.3,34,0.00,,,0.00,,2013-02-11 03:56:00,
2013-02-11 05:06:00,39.6,13.3,29.91,South,180,3.5,6.2,34,0.00,,,0.00,,2013-02-11 04:06:00,
2013-02-11 05:16:00,39.6,13.3,29.88,South,180,4.0,4.0,34,0.00,,,0.00,,2013-02-11 04:16:00,
2013-02-11 05:26:00,39.7,14.2,29.88,East,90,4.0,7.6,35,0.00,,,0.00,,2013-02-11 04:26:00,
2013-02-11 05:36:00,40.1,13.8,29.88,ESE,112,3.1,5.8,34,0.00,,,0.00,,2013-02-11 04:36:00,
2013-02-11 05:41:00,40.1,13.8,29.88,ESE,112,3.1,5.8,34,0.00,,,0.00,,2013-02-11 04:41:00,
2013-02-11 05:47:00,40.1,13.8,29.88,East,90,3.5,4.0,34,0.15,,,0.15,,2013-02-11 04:47:00,
2013-02-11 05:56:00,40.3,14.7,29.88,East,90,3.5,8.0,35,0.15,,,0.15,,2013-02-11 04:56:00,
2013-02-11 06:06:00,40.3,14.7,29.85,South,180,2.6,5.8,35,0.15,,,0.15,,2013-02-11 05:06:00,
2013-02-11 06:16:00,40.3,14.7,29.85,East,90,4.9,6.2,35,0.00,,,0.15,,2013-02-11 05:16:00,
2013-02-11 06:26:00,39.9,15.1,29.85,South,180,4.9,4.9,36,0.00,,,0.15,,2013-02-11 05:26:00,
2013-02-11 06:36:00,40.1,15.1,29.82,South,180,6.2,7.6,36,0.00,,,0.15,,2013-02-11 05:36:00,
2013-02-11 06:41:00,40.1,15.1,29.82,South,180,6.2,7.6,36,0.00,,,0.15,,2013-02-11 05:41:00,
2013-02-11 06:47:00,40.5,16.2,29.85,East,90,3.1,8.5,37,0.00,,,0.15,,2013-02-11 05:47:00,
2013-02-11 06:56:00,40.3,16.0,29.85,ENE,67,4.0,8.9,37,0.00,,,0.15,,2013-02-11 05:56:00,
2013-02-11 07:06:00,40.3,17.8,29.85,SSE,157,2.2,3.5,40,0.00,,,0.15,,2013-02-11 06:06:00,
2013-02-11 07:16:00,41.7,20.1,29.85,South,180,4.9,11.1,42,0.00,,,0.15,,2013-02-11 06:16:00,
2013-02-11 07:26:00,41.7,20.1,29.82,South,180,6.7,6.7,42,0.00,,,0.15,,2013-02-11 06:26:00,
2013-02-11 07:36:00,41.5,20.7,29.82,SSE,157,6.2,8.0,43,0.00,,,0.15,,2013-02-11 06:36:00,
2013-02-11 07:41:00,41.5,20.7,29.82,SSE,157,6.2,8.0,43,0.00,,,0.15,,2013-02-11 06:41:00,
2013-02-11 07:47:00,41.4,21.0,29.82,East,90,5.3,6.2,44,0.00,,,0.15,,2013-02-11 06:47:00,
2013-02-11 07:56:00,41.2,21.4,29.82,East,90,4.4,8.0,45,0.00,,,0.15,,2013-02-11 06:56:00,
2013-02-11 08:06:00,41.4,22.1,29.82,ESE,112,5.3,12.5,46,0.00,,,0.15,,2013-02-11 07:06:00,
2013-02-11 08:16:00,41.5,22.6,29.82,South,180,5.3,7.6,47,0.00,,,0.15,,2013-02-11 07:16:00,
2013-02-11 08:26:00,41.2,24.8,29.82,SE,135,4.0,4.0,52,0.00,,,0.15,,2013-02-11 07:26:00,
2013-02-11 08:36:00,41.0,25.0,29.82,South,180,3.5,3.5,53,0.00,,,0.15,,2013-02-11 07:36:00,
2013-02-11 08:41:00,41.0,25.0,29.82,South,180,3.5,3.5,53,0.00,,,0.15,,2013-02-11 07:41:00,
2013-02-11 08:47:00,40.8,25.3,29.82,East,90,3.1,3.1,54,0.00,,,0.15,,2013-02-11 07:47:00,
2013-02-11 08:56:00,41.0,26.4,29.79,SE,135,3.5,4.9,56,0.00,,,0.15,,2013-02-11 07:56:00,
2013-02-11 09:06:00,39.7,27.3,29.79,East,90,6.2,9.8,61,0.00,,,0.15,,2013-02-11 08:06:00,
2013-02-11 09:16:00,39.2,29.5,29.79,East,90,3.5,8.0,68,0.00,,,0.15,,2013-02-11 08:16:00,
2013-02-11 09:26:00,39.6,29.1,29.79,SE,135,4.9,4.9,66,0.00,,,0.15,,2013-02-11 08:26:00,
2013-02-11 09:36:00,40.6,28.9,29.79,SSE,157,5.8,9.3,63,0.00,,,0.15,,2013-02-11 08:36:00,
2013-02-11 09:41:00,40.6,28.9,29.79,SSE,157,5.8,9.3,63,0.00,,,0.15,,2013-02-11 08:41:00,
2013-02-11 09:47:00,41.7,28.8,29.76,East,90,8.9,10.2,60,0.00,,,0.15,,2013-02-11 08:47:00,
2013-02-11 09:56:00,41.9,29.3,29.76,South,180,4.9,5.3,61,0.00,,,0.15,,2013-02-11 08:56:00,
2013-02-11 10:06:00,41.5,32.4,29.76,South,180,5.8,8.0,70,0.00,,,0.15,,2013-02-11 09:06:00,
2013-02-11 10:16:00,41.2,34.2,29.76,South,180,7.1,13.8,76,0.00,,,0.15,,2013-02-11 09:16:00,
2013-02-11 10:26:00,41.0,35.2,29.76,NE,45,5.8,5.8,80,0.00,,,0.15,,2013-02-11 09:26:00,
2013-02-11 10:36:00,40.6,35.2,29.76,South,180,6.7,9.3,81,0.00,,,0.15,,2013-02-11 09:36:00,
2013-02-11 10:41:00,40.6,35.2,29.76,South,180,6.7,9.3,81,0.00,,,0.15,,2013-02-11 09:41:00,
2013-02-11 10:47:00,41.2,35.8,29.76,SE,135,5.8,10.2,81,0.00,,,0.15,,2013-02-11 09:47:00,
2013-02-11 10:56:00,42.3,36.5,29.73,SE,135,5.3,8.0,80,0.00,,,0.15,,2013-02-11 09:56:00,
2013-02-11 11:06:00,42.8,35.6,29.73,South,180,6.2,9.8,76,0.00,,,0.15,,2013-02-11 10:06:00,
2013-02-11 11:16:00,42.3,34.9,29.73,South,180,8.9,8.9,75,0.00,,,0.15,,2013-02-11 10:16:00,
2013-02-11 11:26:00,42.3,37.0,29.73,SE,135,4.0,4.9,82,0.00,,,0.15,,2013-02-11 10:26:00,
2013-02-11 11:36:00,41.7,36.1,29.73,South,180,5.8,10.2,81,0.00,,,0.15,,2013-02-11 10:36:00,
2013-02-11 11:41:00,41.7,36.1,29.73,South,180,5.8,10.2,81,0.00,,,0.15,,2013-02-11 10:41:00,
2013-02-11 11:47:00,42.1,35.6,29.73,SSE,157,7.6,7.6,78,0.00,,,0.15,,2013-02-11 10:47:00,
2013-02-11 11:56:00,43.7,36.1,29.73,South,180,6.7,16.5,75,0.00,,,0.15,,2013-02-11 10:56:00,
2013-02-11 12:06:00,43.2,35.1,29.73,SSE,157,6.7,8.9,73,0.00,,,0.15,,2013-02-11 11:06:00,
2013-02-11 12:16:00,43.3,34.2,29.70,East,90,7.1,10.2,70,0.00,,,0.15,,2013-02-11 11:16:00,
2013-02-11 12:26:00,45.9,35.8,29.70,SE,135,5.3,8.0,68,0.00,,,0.15,,2013-02-11 11:26:00,
2013-02-11 12:36:00,46.4,35.2,29.70,East,90,8.0,8.0,65,0.00,,,0.15,,2013-02-11 11:36:00,
2013-02-11 12:41:00,46.4,35.2,29.70,East,90,8.0,8.0,65,0.00,,,0.15,,2013-02-11 11:41:00,
2013-02-11 12:48:00,46.6,34.9,29.70,ESE,112,5.3,10.2,64,0.00,,,0.15,,2013-02-11 11:48:00,
2013-02-11 12:56:00,47.8,35.8,29.70,SE,135,4.4,4.4,63,0.00,,,0.15,,2013-02-11 11:56:00,
2013-02-11 13:06:00,52.0,39.7,29.67,SE,135,8.0,9.3,63,0.00,,,0.15,,2013-02-11 12:06:00,
2013-02-11 13:16:00,49.3,36.0,29.67,SE,135,5.3,11.1,60,0.00,,,0.15,,2013-02-11 12:16:00,
2013-02-11 13:26:00,48.4,35.4,29.70,SE,135,6.7,11.1,61,0.00,,,0.15,,2013-02-11 12:26:00,
2013-02-11 13:36:00,48.9,36.0,29.67,SW,225,7.6,9.3,61,0.00,,,0.15,,2013-02-11 12:36:00,
2013-02-11 13:41:00,48.9,36.0,29.67,SW,225,7.6,9.3,61,0.00,,,0.15,,2013-02-11 12:41:00,
2013-02-11 13:48:00,48.2,35.8,29.67,SE,135,4.4,6.2,62,0.00,,,0.15,,2013-02-11 12:48:00,
2013-02-11 13:56:00,49.5,37.8,29.64,SE,135,6.2,11.1,64,0.00,,,0.15,,2013-02-11 12:56:00,
2013-02-11 14:06:00,52.5,38.5,29.64,South,180,8.0,9.8,59,0.00,,,0.15,,2013-02-11 13:06:00,
2013-02-11 14:16:00,55.4,40.8,29.64,SW,225,7.6,9.8,58,0.00,,,0.15,,2013-02-11 13:16:00,
2013-02-11 14:26:00,54.9,40.3,29.64,South,180,4.9,8.9,58,0.00,,,0.15,,2013-02-11 13:26:00,
2013-02-11 14:36:00,55.2,40.1,29.64,SE,135,5.8,7.6,57,0.00,,,0.15,,2013-02-11 13:36:00,
2013-02-11 14:41:00,55.2,40.1,29.64,SE,135,5.8,7.6,57,0.00,,,0.15,,2013-02-11 13:41:00,
2013-02-11 14:48:00,54.5,39.9,29.64,South,180,5.3,10.7,58,0.00,,,0.15,,2013-02-11 13:48:00,
2013-02-11 14:56:00,53.8,40.1,29.64,SW,225,6.7,8.0,60,0.00,,,0.15,,2013-02-11 13:56:00,
2013-02-11 15:06:00,53.4,41.0,29.61,SE,135,7.1,8.0,63,0.00,,,0.15,,2013-02-11 14:06:00,
2013-02-11 15:16:00,53.8,41.0,29.61,SE,135,6.7,9.8,62,0.00,,,0.15,,2013-02-11 14:16:00,
2013-02-11 15:26:00,53.8,40.5,29.61,SW,225,8.5,12.5,61,0.00,,,0.15,,2013-02-11 14:26:00,
2013-02-11 15:32:00,53.6,40.8,29.61,South,180,7.6,8.9,62,0.00,,,0.15,,2013-02-11 14:32:00,
2013-02-11 15:41:00,53.4,41.0,29.61,South,180,8.9,9.3,63,0.00,,,0.15,,2013-02-11 14:41:00,
2013-02-11 15:51:00,53.6,40.8,29.61,South,180,8.0,17.8,62,0.00,,,0.15,,2013-02-11 14:51:00,
2013-02-11 17:01:00,54.0,40.6,29.55,South,180,10.7,10.7,61,0.00,,,0.15,,2013-02-11 16:01:00,
2013-02-11 17:11:00,54.1,40.8,29.55,South,180,5.8,12.9,61,0.00,,,0.15,,2013-02-11 16:11:00,
2013-02-11 17:21:00,54.0,41.2,29.55,South,180,7.6,9.3,62,0.00,,,0.15,,2013-02-11 16:21:00,
2013-02-11 17:31:00,54.0,41.2,29.55,South,180,8.5,13.4,62,0.00,,,0.15,,2013-02-11 16:31:00,
2013-02-11 17:47:00,50.5,44.8,29.58,West,270,10.2,19.6,81,-99.99,,,0.15,,2013-02-11 16:47:00,
2013-02-11 17:53:00,71.1,65.1,29.58,NW,315,6.7,12.0,82,-99.99,,,0.27,,2013-02-11 16:53:00,
2013-02-11 18:01:00,73.9,68.4,29.58,NW,315,8.0,8.0,83,-99.99,,,0.29,,2013-02-11 17:01:00,
2013-02-11 18:11:00,73.0,67.5,29.61,NW,315,8.5,12.9,83,0.00,,,0.52,,2013-02-11 17:11:00,
2013-02-11 18:21:00,74.3,68.7,29.58,North,0,4.0,4.0,83,0.31,,,0.83,,2013-02-11 17:21:00,
2013-02-11 18:31:00,75.2,71.1,29.58,South,180,10.2,14.3,87,0.59,,,1.11,,2013-02-11 17:31:00,
2013-02-11 18:47:00,86.0,80.8,29.58,SSW,202,6.7,6.7,85,0.83,,,1.35,,2013-02-11 17:47:00,
2013-02-11 18:53:00,85.5,80.8,29.58,West,270,6.7,6.7,86,0.99,,,1.51,,2013-02-11 17:53:00,
2013-02-11 19:01:00,84.7,80.4,29.58,West,270,5.3,5.3,87,1.09,,,1.62,,2013-02-11 18:01:00,
2013-02-11 19:11:00,86.4,81.5,29.55,South,180,4.9,8.5,86,0.00,,,1.64,,2013-02-11 18:11:00,
2013-02-11 19:21:00,86.2,81.3,29.58,South,180,3.5,5.8,86,0.05,,,1.68,,2013-02-11 18:21:00,
2013-02-11 19:31:00,86.7,81.9,29.55,West,270,4.4,4.4,86,0.08,,,1.71,,2013-02-11 18:31:00,
2013-02-11 19:41:00,86.7,81.9,29.55,North,0,3.5,5.8,86,0.16,,,1.79,,2013-02-11 18:41:00,
2013-02-11 19:51:00,86.7,82.2,29.55,South,180,3.1,4.0,87,0.21,,,1.84,,2013-02-11 18:51:00,
2013-02-11 20:01:00,86.9,82.4,29.55,South,180,3.1,3.5,87,0.26,,,1.89,,2013-02-11 19:01:00,
2013-02-11 20:11:00,86.4,81.9,29.55,North,0,7.6,7.6,87,0.00,,,2.21,,2013-02-11 19:11:00,
2013-02-11 20:21:00,86.9,82.4,29.55,West,270,5.8,7.6,87,0.17,,,2.37,,2013-02-11 19:21:00,
2013-02-11 20:31:00,87.3,82.8,29.55,South,180,2.2,4.4,87,0.24,,,2.44,,2013-02-11 19:31:00,
2013-02-11 20:41:00,87.1,82.6,29.55,West,270,3.5,6.2,87,0.26,,,2.46,,2013-02-11 19:41:00,
2013-02-11 20:51:00,86.9,82.4,29.58,West,270,3.1,4.0,87,0.29,,,2.49,,2013-02-11 19:51:00,
2013-02-11 21:01:00,86.7,82.2,29.55,West,270,2.6,8.0,87,0.35,,,2.56,,2013-02-11 20:01:00,
2013-02-11 21:11:00,86.4,81.5,29.55,West,270,2.6,2.6,86,0.00,,,2.63,,2013-02-11 20:11:00,
2013-02-11 21:21:00,85.6,81.1,29.58,South,180,3.1,6.2,87,0.04,,,2.67,,2013-02-11 20:21:00,
2013-02-11 21:26:00,85.1,80.8,29.55,South,180,2.6,4.9,87,0.09,,,2.72,,2013-02-11 20:26:00,
2013-02-11 21:36:00,83.7,79.7,29.55,South,180,3.5,4.0,88,0.14,,,2.77,,2013-02-11 20:36:00,
2013-02-11 21:47:00,83.7,79.7,29.55,South,180,3.5,4.0,88,0.16,,,2.79,,2013-02-11 20:47:00,
2013-02-11 21:52:00,83.7,79.7,29.55,South,180,2.6,3.1,88,0.16,,,2.79,,2013-02-11 20:52:00,
2013-02-11 22:01:00,83.7,79.7,29.55,South,180,1.7,4.9,88,0.16,,,2.79,,2013-02-11 21:01:00,
2013-02-11 22:11:00,83.5,79.5,29.55,South,180,2.2,2.6,88,0.00,,,2.79,,2013-02-11 21:11:00,
2013-02-11 22:21:00,84.0,79.7,29.55,South,180,0.8,1.7,87,0.00,,,2.79,,2013-02-11 21:21:00,
2013-02-11 22:31:00,84.2,79.9,29.55,South,180,1.7,2.2,87,0.00,,,2.79,,2013-02-11 21:31:00,
2013-02-11 22:41:00,84.6,80.2,29.55,South,180,2.2,3.1,87,0.00,,,2.79,,2013-02-11 21:41:00,
2013-02-11 22:51:00,85.3,81.0,29.55,South,180,2.6,5.8,87,0.01,,,2.80,,2013-02-11 21:51:00,
2013-02-11 23:01:00,85.3,81.0,29.55,South,180,2.6,4.0,87,0.01,,,2.80,,2013-02-11 22:01:00,
2013-02-11 23:11:00,85.3,81.1,29.55,South,180,1.3,4.9,88,0.00,,,2.81,,2013-02-11 22:11:00,
2013-02-11 23:21:00,85.5,81.1,29.55,South,180,2.6,4.4,87,0.03,,,2.84,,2013-02-11 22:21:00,
2013-02-11 23:31:00,85.6,81.5,29.58,South,180,2.2,4.9,88,0.04,,,2.85,,2013-02-11 22:31:00,
2013-02-11 23:41:00,85.6,81.5,29.55,South,180,1.3,1.7,88,0.05,,,2.86,,2013-02-11 22:41:00,
2013-02-11 23:51:00,84.6,80.2,29.55,West,270,3.1,4.4,87,0.06,,,2.87,,2013-02-11 22:51:00,